Monday, November 24, 2014
21:33 UTC
  |  Log In   |  Register Free
Airport Search:

Big Bear City Airport
(KL35)

Big Bear City Airport Diagram
No Airport Diagram Available

FAA data valid effective November 13, 2014 - January 08, 2015 (unless otherwise noted).

 
 
 
 
 
 
 
 
 
 
 
 
 
 

Current Aviation Weather for Big Bear City Airport (KL35)

The most recent METAR observation for KL35 was updated at: 2121
METAR Summary (Translated METAR)
KL35
242035Z AUTO 07011G16KT 10SM CLR 07/M13 A3039 RMK AO2
KSBD
242050Z 20013KT 10SM BKN200 24/M11 A3021
(21.4 nm SW from KL35)
KAPV
191256Z AUTO 05004KT 10SM FEW075 SCT090 BKN110 18/18 A2996 RMK AO2 SLP144 T01830178 $
(24.8 nm NW from KL35)
TAF
No TAF information found within 50 nm of KSBD
  Airport Weather Conditions for KL35

 Current Weather at L35
45° F
Fair
East winds at 12.7 mph
L35 NOAA Radar

Pressure: 30.39 in
Humidity: 23%
Wind: from the East at 12.7 gusting to 18.4 MPH (11 gusting to 16 KT)
Dew Point: 8.6°F
Visibility: 10.00 mi


Airport Weather Forecast for KL35

Translated METAR and TAF for KSBD
Translated METAR for KSBD (2128 UTC 24 November 2014)
found at http://aviationweather.gov/adds/metars/
 
METAR text: KSBD 242050Z 20013KT 10SM BKN200 24/M11 A3021
Conditions at: KSBD (SAN BERNARDINO , CA, US) observed 2050 UTC 24 November 2014
Temperature: 24.0°C (75°F)
Dewpoint: -11.0°C (12°F) [RH = 9%]
Pressure (altimeter): 30.21 inches Hg (1023.1 mb)
Winds: from the SSW (200 degrees) at 15 MPH (13 knots; 6.8 m/s)
Visibility: 10 or more miles (16+ km)
Ceiling: 20000 feet AGL
Clouds: broken clouds at 20000 feet AGL
Weather: no significant weather observed at this time
Translated TAF for KSBD

There is no translated TAF available for this airport

Find All Airport Services Find A Hotel Find A Rental Car Find A Golf Course Find A Restaurant $100 Hamburger



FBO's on the Field
FBO Company Facility Photos Services Transportation Aviation Fuel Prices: Prices include tax
Catering Weather Repair Courtesy Rental Type 100LL JetA JetA+ MOGAS 8087
 
Big Bear Airport

This FBO has not yet been rated
FS:Epic
Last Updated: Nov-11
Login to update fuel prices
SS:
Contact Big Bear AirportMore FBO Information
 
Add another FBO Facility Photos Catering Weather Repair Courtesy Rental Type 100LL JetA JetA+ MOGAS 8087
Services Transportation Aviation Fuel Prices: Prices include tax


model-print
model-print
model-print
model-print